Chester, NE (68327)

3:37 AM CST on December 29, 2014 (GMT -0600)
Hebron Municipal | Change Station
CLOSE
Current Station
Airport
Location: Hebron,
Elevation: 1467 ft
Nearby Weather Stations

Elev 1467 ft 40.15 °N, 97.59 °W | Updated 22 minutes ago

Overcast
Overcast
26 °F
Feels Like 19 °F
N
6
Wind Variable Wind from ENE

Today
High -- | Low -- °F
--% Chance of Precip.
Yesterday
High -- | Low -- °F
Precip. -- in
7:51 AM 5:13 PM
First Quarter, 57% visible
Pressure 30.18 in
Visibility 7.0 miles
Clouds Overcast 9000 ft
Windchill 19 °F
Dew Point 22 °F
Humidity 86%
Rainfall 0.00 in
Snow Depth Not available.
UV 0 out of 12
Pollen .10 out of 12
Air Quality Not available.
Flu Activity Not available.
METAR KHJH 290915Z AUTO 06005KT 7SM OVC090 M03/M05 A3018 RMK AO2 T10351055

More Conditions Fewer Conditions

Pressure 30.18 in
Visibility 7.0 miles
Clouds Overcast 9000 ft
Windchill 19 °F
Dew Point 22 °F
Humidity 86%
Rainfall 0.00 in
Snow Depth Not available.
UV 0 out of 12
Pollen .10 out of 12
Air Quality Not available.
Flu Activity Not available.
METAR KHJH 290915Z AUTO 06005KT 7SM OVC090 M03/M05 A3018 RMK AO2 T10351055

More Conditions Fewer Conditions

10-Day Weather Forecast

Almanac

Astronomy

Dec. 29, 2014 Rise Set
Actual Time
Civil Twilight
Nautical Twilight
Astronomical Twilight
Moon
Length of Visible Light
Length of Day
Tomorrow will be .
, % of the Moon is Illuminated

Today's Extremes

State Highs State Lows

Community

WunderPhotos

Upload Photos

1,781,562 photos uploaded!

WunderBlogs® & News

Nearby

Air Quality

  Air Quality AQ Index Pollutant
Not available.

Snow Depth

Station Depth Elevation

Earthquake Activity

City Distance Mag. Time & Date
Minimum magnitude displayed is 2.5.

Coastal Water Temperatures

Place Temperature

Nearby Weather Stations